sensor_id;sensor_type;location;lat;lon;timestamp;pressure;altitude;pressure_sealevel;temperature;humidity
57779;BME280;43608;49.486;9.640;2023-02-12T00:00:27;100675.97;;;3.44;82.84
57779;BME280;43608;49.486;9.640;2023-02-12T00:00:57;100692.06;;;3.50;83.24
57779;BME280;43608;49.486;9.640;2023-02-12T00:01:28;100689.25;;;3.47;83.35
57779;BME280;43608;49.486;9.640;2023-02-12T00:01:58;100678.59;;;3.44;82.96
57779;BME280;43608;49.486;9.640;2023-02-12T00:02:28;100698.38;;;3.54;83.08
57779;BME280;43608;49.486;9.640;2023-02-12T00:02:59;100683.03;;;3.45;83.21
57779;BME280;43608;49.486;9.640;2023-02-12T00:03:29;100687.47;;;3.46;83.62
57779;BME280;43608;49.486;9.640;2023-02-12T00:04:00;100691.34;;;3.53;83.28
57779;BME280;43608;49.486;9.640;2023-02-12T00:04:30;100682.31;;;3.47;83.30
57779;BME280;43608;49.486;9.640;2023-02-12T00:05:00;100695.94;;;3.57;83.15
57779;BME280;43608;49.486;9.640;2023-02-12T00:05:31;100696.00;;;3.58;83.46
57779;BME280;43608;49.486;9.640;2023-02-12T00:06:03;100693.38;;;3.58;83.29
57779;BME280;43608;49.486;9.640;2023-02-12T00:06:33;100667.97;;;3.41;83.47
57779;BME280;43608;49.486;9.640;2023-02-12T00:07:04;100677.22;;;3.51;83.07
57779;BME280;43608;49.486;9.640;2023-02-12T00:07:34;100680.84;;;3.53;83.33
57779;BME280;43608;49.486;9.640;2023-02-12T00:08:04;100691.66;;;3.59;82.78
57779;BME280;43608;49.486;9.640;2023-02-12T00:08:36;100697.00;;;3.60;83.33
57779;BME280;43608;49.486;9.640;2023-02-12T00:09:06;100697.91;;;3.61;83.44
57779;BME280;43608;49.486;9.640;2023-02-12T00:09:37;100679.03;;;3.52;83.39
57779;BME280;43608;49.486;9.640;2023-02-12T00:10:07;100693.47;;;3.60;82.95
57779;BME280;43608;49.486;9.640;2023-02-12T00:10:40;100684.63;;;3.58;83.42
57779;BME280;43608;49.486;9.640;2023-02-12T00:11:15;100683.72;;;3.57;83.27
57779;BME280;43608;49.486;9.640;2023-02-12T00:11:45;100686.34;;;3.57;83.05
57779;BME280;43608;49.486;9.640;2023-02-12T00:12:16;100690.78;;;3.58;83.03
57779;BME280;43608;49.486;9.640;2023-02-12T00:12:46;100692.59;;;3.59;83.31
57779;BME280;43608;49.486;9.640;2023-02-12T00:13:17;100688.88;;;3.56;83.07
57779;BME280;43608;49.486;9.640;2023-02-12T00:13:47;100689.59;;;3.53;83.32
57779;BME280;43608;49.486;9.640;2023-02-12T00:14:18;100691.41;;;3.54;83.35
57779;BME280;43608;49.486;9.640;2023-02-12T00:14:48;100690.50;;;3.54;83.04
57779;BME280;43608;49.486;9.640;2023-02-12T00:15:19;100704.78;;;3.59;83.22
57779;BME280;43608;49.486;9.640;2023-02-12T00:15:51;100645.19;;;3.25;83.24
57779;BME280;43608;49.486;9.640;2023-02-12T00:16:24;100707.31;;;3.57;83.59
57779;BME280;43608;49.486;9.640;2023-02-12T00:16:55;100709.03;;;3.57;83.17
57779;BME280;43608;49.486;9.640;2023-02-12T00:17:25;100703.72;;;3.55;83.32
57779;BME280;43608;49.486;9.640;2023-02-12T00:17:56;100693.97;;;3.53;83.76
57779;BME280;43608;49.486;9.640;2023-02-12T00:18:26;100693.03;;;3.52;83.24
57779;BME280;43608;49.486;9.640;2023-02-12T00:18:57;100699.28;;;3.54;83.52
57779;BME280;43608;49.486;9.640;2023-02-12T00:19:29;100682.22;;;3.46;83.38
57779;BME280;43608;49.486;9.640;2023-02-12T00:19:59;100682.97;;;3.43;83.29
57779;BME280;43608;49.486;9.640;2023-02-12T00:20:30;100684.75;;;3.44;83.57
57779;BME280;43608;49.486;9.640;2023-02-12T00:21:00;100696.59;;;3.53;83.33
57779;BME280;43608;49.486;9.640;2023-02-12T00:21:31;100685.75;;;3.46;83.61
57779;BME280;43608;49.486;9.640;2023-02-12T00:22:01;100672.94;;;3.36;83.48
57779;BME280;43608;49.486;9.640;2023-02-12T00:22:32;100684.13;;;3.49;83.37
57779;BME280;43608;49.486;9.640;2023-02-12T00:23:03;100688.44;;;3.48;83.50
57779;BME280;43608;49.486;9.640;2023-02-12T00:23:34;100691.25;;;3.51;83.77
57779;BME280;43608;49.486;9.640;2023-02-12T00:24:05;100682.31;;;3.47;83.41
57779;BME280;43608;49.486;9.640;2023-02-12T00:24:35;100689.25;;;3.47;83.53
57779;BME280;43608;49.486;9.640;2023-02-12T00:25:06;100675.72;;;3.39;83.68
57779;BME280;43608;49.486;9.640;2023-02-12T00:25:40;100699.13;;;3.51;83.61
57779;BME280;43608;49.486;9.640;2023-02-12T00:26:14;100670.16;;;3.33;83.49
57779;BME280;43608;49.486;9.640;2023-02-12T00:26:44;100696.31;;;3.48;83.46
57779;BME280;43608;49.486;9.640;2023-02-12T00:27:17;100704.25;;;3.50;83.67
57779;BME280;43608;49.486;9.640;2023-02-12T00:27:47;100701.75;;;3.51;83.54
57779;BME280;43608;49.486;9.640;2023-02-12T00:28:17;100679.06;;;3.37;83.52
57779;BME280;43608;49.486;9.640;2023-02-12T00:28:49;100692.72;;;3.46;83.58
57779;BME280;43608;49.486;9.640;2023-02-12T00:29:19;100689.09;;;3.44;83.57
57779;BME280;43608;49.486;9.640;2023-02-12T00:29:50;100687.94;;;3.39;83.43
57779;BME280;43608;49.486;9.640;2023-02-12T00:30:20;100702.47;;;3.49;83.46
57779;BME280;43608;49.486;9.640;2023-02-12T00:30:51;100699.75;;;3.47;83.56
57779;BME280;43608;49.486;9.640;2023-02-12T00:31:24;100693.44;;;3.43;83.65
57779;BME280;43608;49.486;9.640;2023-02-12T00:31:54;100669.16;;;3.31;83.31
57779;BME280;43608;49.486;9.640;2023-02-12T00:32:25;100694.25;;;3.42;83.62
57779;BME280;43608;49.486;9.640;2023-02-12T00:32:55;100682.69;;;3.39;83.80
57779;BME280;43608;49.486;9.640;2023-02-12T00:33:26;100681.59;;;3.35;83.55
57779;BME280;43608;49.486;9.640;2023-02-12T00:33:57;100690.81;;;3.43;83.47
57779;BME280;43608;49.486;9.640;2023-02-12T00:34:28;100683.56;;;3.39;83.70
57779;BME280;43608;49.486;9.640;2023-02-12T00:34:58;100694.25;;;3.42;83.83
57779;BME280;43608;49.486;9.640;2023-02-12T00:35:29;100671.84;;;3.33;83.97
57779;BME280;43608;49.486;9.640;2023-02-12T00:35:59;100688.66;;;3.36;83.98
57779;BME280;43608;49.486;9.640;2023-02-12T00:36:31;100697.03;;;3.45;83.88
57779;BME280;43608;49.486;9.640;2023-02-12T00:37:01;100678.97;;;3.35;83.64
57779;BME280;43608;49.486;9.640;2023-02-12T00:37:32;100675.28;;;3.31;83.70
57779;BME280;43608;49.486;9.640;2023-02-12T00:38:02;100686.03;;;3.36;83.76
57779;BME280;43608;49.486;9.640;2023-02-12T00:38:33;100694.25;;;3.42;83.47
57779;BME280;43608;49.486;9.640;2023-02-12T00:39:03;100703.81;;;3.42;83.63
57779;BME280;43608;49.486;9.640;2023-02-12T00:39:33;100691.44;;;3.39;83.94
57779;BME280;43608;49.486;9.640;2023-02-12T00:40:07;100683.13;;;3.31;84.08
57779;BME280;43608;49.486;9.640;2023-02-12T00:40:38;100679.34;;;3.26;83.72
57779;BME280;43608;49.486;9.640;2023-02-12T00:41:08;100685.94;;;3.35;83.61
57779;BME280;43608;49.486;9.640;2023-02-12T00:41:38;100699.31;;;3.39;83.71
57779;BME280;43608;49.486;9.640;2023-02-12T00:42:09;100689.53;;;3.37;83.99
57779;BME280;43608;49.486;9.640;2023-02-12T00:42:39;100691.44;;;3.39;83.68
57779;BME280;43608;49.486;9.640;2023-02-12T00:43:09;100690.38;;;3.36;83.73
57779;BME280;43608;49.486;9.640;2023-02-12T00:43:40;100691.28;;;3.36;83.93
57779;BME280;43608;49.486;9.640;2023-02-12T00:44:10;100674.94;;;3.25;83.83
57779;BME280;43608;49.486;9.640;2023-02-12T00:44:41;100672.50;;;3.28;83.84
57779;BME280;43608;49.486;9.640;2023-02-12T00:45:11;100694.97;;;3.40;83.83
57779;BME280;43608;49.486;9.640;2023-02-12T00:45:44;100704.66;;;3.41;84.03
57779;BME280;43608;49.486;9.640;2023-02-12T00:46:15;100699.50;;;3.42;83.80
57779;BME280;43608;49.486;9.640;2023-02-12T00:46:45;100676.94;;;3.29;83.81
57779;BME280;43608;49.486;9.640;2023-02-12T00:47:16;100686.69;;;3.32;84.16
57779;BME280;43608;49.486;9.640;2023-02-12T00:47:46;100693.97;;;3.38;83.73
57779;BME280;43608;49.486;9.640;2023-02-12T00:48:16;100685.75;;;3.31;83.77
57779;BME280;43608;49.486;9.640;2023-02-12T00:48:47;100693.91;;;3.36;84.00
57779;BME280;43608;49.486;9.640;2023-02-12T00:49:17;100696.59;;;3.38;83.88
57779;BME280;43608;49.486;9.640;2023-02-12T00:49:49;100655.97;;;3.14;83.96
57779;BME280;43608;49.486;9.640;2023-02-12T00:50:19;100707.28;;;3.41;83.87
57779;BME280;43608;49.486;9.640;2023-02-12T00:50:50;100698.34;;;3.37;83.98
57779;BME280;43608;49.486;9.640;2023-02-12T00:51:20;100708.25;;;3.43;84.02
57779;BME280;43608;49.486;9.640;2023-02-12T00:51:51;100701.19;;;3.42;84.09
57779;BME280;43608;49.486;9.640;2023-02-12T00:52:21;100706.34;;;3.40;83.80
57779;BME280;43608;49.486;9.640;2023-02-12T00:52:51;100691.19;;;3.35;84.01
57779;BME280;43608;49.486;9.640;2023-02-12T00:53:22;100694.72;;;3.35;84.05
57779;BME280;43608;49.486;9.640;2023-02-12T00:53:52;100708.16;;;3.41;84.21
57779;BME280;43608;49.486;9.640;2023-02-12T00:54:22;100638.75;;;3.03;83.97
57779;BME280;43608;49.486;9.640;2023-02-12T00:54:53;100688.38;;;3.31;83.86
57779;BME280;43608;49.486;9.640;2023-02-12T00:55:23;100709.78;;;3.39;84.16
57779;BME280;43608;49.486;9.640;2023-02-12T00:55:54;100711.69;;;3.42;84.07
57779;BME280;43608;49.486;9.640;2023-02-12T00:56:24;100711.59;;;3.40;84.13
57779;BME280;43608;49.486;9.640;2023-02-12T00:56:55;100693.00;;;3.36;84.12
57779;BME280;43608;49.486;9.640;2023-02-12T00:57:26;100708.25;;;3.43;84.15
57779;BME280;43608;49.486;9.640;2023-02-12T00:57:56;100709.06;;;3.42;83.73
57779;BME280;43608;49.486;9.640;2023-02-12T00:58:27;100713.41;;;3.41;84.05
57779;BME280;43608;49.486;9.640;2023-02-12T00:58:57;100705.56;;;3.41;84.30
57779;BME280;43608;49.486;9.640;2023-02-12T00:59:28;100691.19;;;3.35;83.80
57779;BME280;43608;49.486;9.640;2023-02-12T00:59:58;100693.16;;;3.39;83.81
57779;BME280;43608;49.486;9.640;2023-02-12T01:00:29;100708.25;;;3.43;84.01
57779;BME280;43608;49.486;9.640;2023-02-12T01:00:59;100697.31;;;3.35;83.83
57779;BME280;43608;49.486;9.640;2023-02-12T01:01:30;100698.13;;;3.34;83.66
57779;BME280;43608;49.486;9.640;2023-02-12T01:02:03;100676.66;;;3.25;83.92
57779;BME280;43608;49.486;9.640;2023-02-12T01:02:34;100699.13;;;3.36;84.11
57779;BME280;43608;49.486;9.640;2023-02-12T01:03:04;100706.44;;;3.42;83.74
57779;BME280;43608;49.486;9.640;2023-02-12T01:03:35;100716.13;;;3.43;83.94
57779;BME280;43608;49.486;9.640;2023-02-12T01:04:05;100691.00;;;3.31;83.96
57779;BME280;43608;49.486;9.640;2023-02-12T01:04:35;100691.19;;;3.35;83.88
57779;BME280;43608;49.486;9.640;2023-02-12T01:05:07;100697.16;;;3.32;83.83
57779;BME280;43608;49.486;9.640;2023-02-12T01:05:37;100707.28;;;3.41;83.87
57779;BME280;43608;49.486;9.640;2023-02-12T01:06:07;100709.19;;;3.43;83.98
57779;BME280;43608;49.486;9.640;2023-02-12T01:06:38;100679.19;;;3.23;83.90
57779;BME280;43608;49.486;9.640;2023-02-12T01:07:08;100700.88;;;3.36;84.14
57779;BME280;43608;49.486;9.640;2023-02-12T01:07:39;100717.03;;;3.43;84.08
57779;BME280;43608;49.486;9.640;2023-02-12T01:08:13;100680.19;;;3.25;84.01
57779;BME280;43608;49.486;9.640;2023-02-12T01:08:44;100697.31;;;3.35;84.19
57779;BME280;43608;49.486;9.640;2023-02-12T01:09:14;100699.88;;;3.34;83.94
57779;BME280;43608;49.486;9.640;2023-02-12T01:09:45;100692.81;;;3.33;83.98
57779;BME280;43608;49.486;9.640;2023-02-12T01:10:16;100707.16;;;3.39;84.15
57779;BME280;43608;49.486;9.640;2023-02-12T01:10:53;100706.56;;;3.43;84.27
57779;BME280;43608;49.486;9.640;2023-02-12T01:11:24;100687.56;;;3.33;84.02
57779;BME280;43608;49.486;9.640;2023-02-12T01:11:54;100694.06;;;3.39;84.26
57779;BME280;43608;49.486;9.640;2023-02-12T01:12:25;100703.94;;;3.43;83.86
57779;BME280;43608;49.486;9.640;2023-02-12T01:12:55;100685.22;;;3.37;83.95
57779;BME280;43608;49.486;9.640;2023-02-12T01:13:26;100685.22;;;3.37;83.84
57779;BME280;43608;49.486;9.640;2023-02-12T01:14:00;100672.50;;;3.28;83.82
57779;BME280;43608;49.486;9.640;2023-02-12T01:14:31;100698.56;;;3.42;84.07
57779;BME280;43608;49.486;9.640;2023-02-12T01:15:01;100673.38;;;3.29;84.27
57779;BME280;43608;49.486;9.640;2023-02-12T01:15:32;100685.94;;;3.35;83.95
57779;BME280;43608;49.486;9.640;2023-02-12T01:16:12;100705.72;;;3.44;84.01
57779;BME280;43608;49.486;9.640;2023-02-12T01:16:43;100701.13;;;3.40;83.89
57779;BME280;43608;49.486;9.640;2023-02-12T01:17:13;100705.63;;;3.43;84.01
57779;BME280;43608;49.486;9.640;2023-02-12T01:17:44;100708.16;;;3.41;84.01
57779;BME280;43608;49.486;9.640;2023-02-12T01:18:15;100690.47;;;3.37;84.09
57779;BME280;43608;49.486;9.640;2023-02-12T01:18:45;100702.13;;;3.42;84.02
57779;BME280;43608;49.486;9.640;2023-02-12T01:19:16;100690.38;;;3.36;84.44
57779;BME280;43608;49.486;9.640;2023-02-12T01:19:46;100694.78;;;3.37;84.36
57779;BME280;43608;49.486;9.640;2023-02-12T01:20:18;100674.09;;;3.26;84.35
57779;BME280;43608;49.486;9.640;2023-02-12T01:20:48;100696.59;;;3.38;84.20
57779;BME280;43608;49.486;9.640;2023-02-12T01:21:26;100704.75;;;3.42;84.07
57779;BME280;43608;49.486;9.640;2023-02-12T01:21:56;100693.00;;;3.36;84.61
57779;BME280;43608;49.486;9.640;2023-02-12T01:22:26;100695.72;;;3.37;84.15
57779;BME280;43608;49.486;9.640;2023-02-12T01:22:57;100691.94;;;3.32;84.64
57779;BME280;43608;49.486;9.640;2023-02-12T01:23:27;100707.38;;;3.42;84.64
57779;BME280;43608;49.486;9.640;2023-02-12T01:23:58;100688.50;;;3.33;84.45
57779;BME280;43608;49.486;9.640;2023-02-12T01:24:29;100710.78;;;3.41;84.64
57779;BME280;43608;49.486;9.640;2023-02-12T01:24:59;100700.22;;;3.40;83.86
57779;BME280;43608;49.486;9.640;2023-02-12T01:25:30;100702.84;;;3.40;84.32
57779;BME280;43608;49.486;9.640;2023-02-12T01:26:00;100702.75;;;3.38;84.66
57779;BME280;43608;49.486;9.640;2023-02-12T01:26:31;100703.66;;;3.39;84.56
57779;BME280;43608;49.486;9.640;2023-02-12T01:27:01;100696.69;;;3.39;84.71
57779;BME280;43608;49.486;9.640;2023-02-12T01:27:32;100700.31;;;3.41;84.31
57779;BME280;43608;49.486;9.640;2023-02-12T01:28:03;100666.97;;;3.24;84.51
57779;BME280;43608;49.486;9.640;2023-02-12T01:28:33;100702.13;;;3.42;84.56
57779;BME280;43608;49.486;9.640;2023-02-12T01:29:05;100702.28;;;3.45;84.20
57779;BME280;43608;49.486;9.640;2023-02-12T01:29:36;100691.44;;;3.39;84.47
57779;BME280;43608;49.486;9.640;2023-02-12T01:30:10;100675.91;;;3.27;84.51
57779;BME280;43608;49.486;9.640;2023-02-12T01:30:41;100707.53;;;3.45;84.58
57779;BME280;43608;49.486;9.640;2023-02-12T01:31:14;100686.84;;;3.35;84.24
57779;BME280;43608;49.486;9.640;2023-02-12T01:31:45;100693.25;;;3.40;84.49
57779;BME280;43608;49.486;9.640;2023-02-12T01:32:15;100700.38;;;3.43;84.50
57779;BME280;43608;49.486;9.640;2023-02-12T01:32:45;100693.16;;;3.39;84.98
57779;BME280;43608;49.486;9.640;2023-02-12T01:33:16;100693.25;;;3.40;84.61
57779;BME280;43608;49.486;9.640;2023-02-12T01:33:52;100689.81;;;3.41;84.64
57779;BME280;43608;49.486;9.640;2023-02-12T01:34:23;100701.56;;;3.48;84.43
57779;BME280;43608;49.486;9.640;2023-02-12T01:34:53;100700.75;;;3.49;84.71
57779;BME280;43608;49.486;9.640;2023-02-12T01:35:23;100710.41;;;3.50;84.74
57779;BME280;43608;49.486;9.640;2023-02-12T01:35:55;100676.56;;;3.38;84.79
57779;BME280;43608;49.486;9.640;2023-02-12T01:36:27;100700.81;;;3.51;84.49
57779;BME280;43608;49.486;9.640;2023-02-12T01:36:57;100703.44;;;3.51;84.51
57779;BME280;43608;49.486;9.640;2023-02-12T01:37:28;100685.75;;;3.46;84.78
57779;BME280;43608;49.486;9.640;2023-02-12T01:37:58;100690.09;;;3.46;84.60
57779;BME280;43608;49.486;9.640;2023-02-12T01:38:28;100675.72;;;3.39;84.24
57779;BME280;43608;49.486;9.640;2023-02-12T01:38:59;100699.13;;;3.51;84.34
57779;BME280;43608;49.486;9.640;2023-02-12T01:39:32;100691.72;;;3.44;84.36
57779;BME280;43608;49.486;9.640;2023-02-12T01:40:03;100691.06;;;3.48;84.46
57779;BME280;43608;49.486;9.640;2023-02-12T01:40:34;100682.97;;;3.43;84.70
57779;BME280;43608;49.486;9.640;2023-02-12T01:41:09;100692.06;;;3.50;84.54
57779;BME280;43608;49.486;9.640;2023-02-12T01:41:43;100694.50;;;3.47;84.29
57779;BME280;43608;49.486;9.640;2023-02-12T01:42:14;100679.25;;;3.40;84.46
57779;BME280;43608;49.486;9.640;2023-02-12T01:42:44;100683.84;;;3.44;84.37
57779;BME280;43608;49.486;9.640;2023-02-12T01:43:15;100676.63;;;3.40;84.28
57779;BME280;43608;49.486;9.640;2023-02-12T01:44:04;100692.00;;;3.49;84.69
57779;BME280;43608;49.486;9.640;2023-02-12T01:44:35;100698.94;;;3.48;84.53
57779;BME280;43608;49.486;9.640;2023-02-12T01:45:47;100696.38;;;3.50;84.58
57779;BME280;43608;49.486;9.640;2023-02-12T01:46:18;100690.97;;;3.46;84.25
57779;BME280;43608;49.486;9.640;2023-02-12T01:46:54;100691.16;;;3.50;84.44
57779;BME280;43608;49.486;9.640;2023-02-12T01:47:24;100664.91;;;3.33;84.45
57779;BME280;43608;49.486;9.640;2023-02-12T01:47:55;100669.22;;;3.33;84.10
57779;BME280;43608;49.486;9.640;2023-02-12T01:48:29;100695.50;;;3.49;84.19
57779;BME280;43608;49.486;9.640;2023-02-12T01:49:04;100687.34;;;3.44;84.38
57779;BME280;43608;49.486;9.640;2023-02-12T01:50:12;100674.66;;;3.36;84.36
57779;BME280;43608;49.486;9.640;2023-02-12T01:50:45;100665.63;;;3.30;84.58
57779;BME280;43608;49.486;9.640;2023-02-12T01:51:18;100680.16;;;3.40;84.34
57779;BME280;43608;49.486;9.640;2023-02-12T01:51:56;100672.94;;;3.36;84.84
57779;BME280;43608;49.486;9.640;2023-02-12T01:52:31;100676.44;;;3.37;84.67
57779;BME280;43608;49.486;9.640;2023-02-12T01:53:03;100684.56;;;3.41;84.85
57779;BME280;43608;49.486;9.640;2023-02-12T01:53:37;100676.72;;;3.41;84.54
57779;BME280;43608;49.486;9.640;2023-02-12T01:54:11;100655.03;;;3.29;84.62
57779;BME280;43608;49.486;9.640;2023-02-12T01:54:42;100669.50;;;3.37;84.46
57779;BME280;43608;49.486;9.640;2023-02-12T01:55:13;100674.00;;;3.40;84.77
57779;BME280;43608;49.486;9.640;2023-02-12T01:55:55;100680.34;;;3.43;84.31
57779;BME280;43608;49.486;9.640;2023-02-12T01:56:27;100678.44;;;3.41;84.76
57779;BME280;43608;49.486;9.640;2023-02-12T01:56:59;100670.22;;;3.35;84.91
57779;BME280;43608;49.486;9.640;2023-02-12T01:57:36;100691.72;;;3.44;84.97
57779;BME280;43608;49.486;9.640;2023-02-12T01:58:07;100663.97;;;3.33;84.69
57779;BME280;43608;49.486;9.640;2023-02-12T01:58:41;100679.41;;;3.43;84.81
57779;BME280;43608;49.486;9.640;2023-02-12T01:59:12;100672.13;;;3.37;84.64
57779;BME280;43608;49.486;9.640;2023-02-12T01:59:44;100682.75;;;3.40;84.70
57779;BME280;43608;49.486;9.640;2023-02-12T02:00:22;100684.66;;;3.43;85.13
57779;BME280;43608;49.486;9.640;2023-02-12T02:00:52;100675.63;;;3.38;84.92
57779;BME280;43608;49.486;9.640;2023-02-12T02:01:28;100683.78;;;3.42;85.15
57779;BME280;43608;49.486;9.640;2023-02-12T02:01:59;100686.31;;;3.41;84.66
57779;BME280;43608;49.486;9.640;2023-02-12T02:02:30;100666.44;;;3.29;85.19
57779;BME280;43608;49.486;9.640;2023-02-12T02:03:01;100683.41;;;3.36;85.08
57779;BME280;43608;49.486;9.640;2023-02-12T02:03:33;100687.19;;;3.41;84.95
57779;BME280;43608;49.486;9.640;2023-02-12T02:04:11;100648.31;;;3.18;85.06
57779;BME280;43608;49.486;9.640;2023-02-12T02:04:50;100646.66;;;3.20;85.02
57779;BME280;43608;49.486;9.640;2023-02-12T02:05:30;100682.69;;;3.39;84.87
57779;BME280;43608;49.486;9.640;2023-02-12T02:06:13;100665.63;;;3.30;85.29
57779;BME280;43608;49.486;9.640;2023-02-12T02:06:58;100671.03;;;3.34;84.86
57779;BME280;43608;49.486;9.640;2023-02-12T02:07:30;100687.94;;;3.39;84.93
57779;BME280;43608;49.486;9.640;2023-02-12T02:08:00;100671.84;;;3.33;85.05
57779;BME280;43608;49.486;9.640;2023-02-12T02:08:32;100664.56;;;3.27;84.96
57779;BME280;43608;49.486;9.640;2023-02-12T02:09:03;100656.69;;;3.27;84.78
57779;BME280;43608;49.486;9.640;2023-02-12T02:09:35;100670.03;;;3.31;84.95
57779;BME280;43608;49.486;9.640;2023-02-12T02:10:07;100684.31;;;3.37;85.00
57779;BME280;43608;49.486;9.640;2023-02-12T02:10:38;100681.53;;;3.34;84.92
57779;BME280;43608;49.486;9.640;2023-02-12T02:11:09;100677.09;;;3.33;84.76
57779;BME280;43608;49.486;9.640;2023-02-12T02:11:58;100670.03;;;3.31;85.13
57779;BME280;43608;49.486;9.640;2023-02-12T02:12:47;100676.19;;;3.32;85.03
57779;BME280;43608;49.486;9.640;2023-02-12T02:13:36;100658.16;;;3.22;85.04
57779;BME280;43608;49.486;9.640;2023-02-12T02:14:25;100677.16;;;3.34;85.09
57779;BME280;43608;49.486;9.640;2023-02-12T02:15:02;100682.59;;;3.37;85.34
57779;BME280;43608;49.486;9.640;2023-02-12T02:15:34;100663.47;;;3.23;85.32
57779;BME280;43608;49.486;9.640;2023-02-12T02:16:18;100675.19;;;3.30;85.07
57779;BME280;43608;49.486;9.640;2023-02-12T02:16:58;100662.56;;;3.23;85.41
57779;BME280;43608;49.486;9.640;2023-02-12T02:18:38;100681.34;;;3.30;85.26
57779;BME280;43608;49.486;9.640;2023-02-12T02:19:21;100693.91;;;3.36;85.08
57779;BME280;43608;49.486;9.640;2023-02-12T02:21:55;100654.44;;;3.18;84.93
57779;BME280;43608;49.486;9.640;2023-02-12T02:27:03;100680.88;;;3.38;85.45
57779;BME280;43608;49.486;9.640;2023-02-12T02:27:40;100687.94;;;3.39;85.35
57779;BME280;43608;49.486;9.640;2023-02-12T02:30:58;100675.38;;;3.33;85.49
57779;BME280;43608;49.486;9.640;2023-02-12T02:32:22;100690.72;;;3.42;85.24
57779;BME280;43608;49.486;9.640;2023-02-12T02:33:10;100696.78;;;3.41;85.66
57779;BME280;43608;49.486;9.640;2023-02-12T02:35:39;100687.13;;;3.40;85.48
57779;BME280;43608;49.486;9.640;2023-02-12T02:36:59;100675.38;;;3.33;85.71
57779;BME280;43608;49.486;9.640;2023-02-12T02:37:38;100686.38;;;3.42;85.45
57779;BME280;43608;49.486;9.640;2023-02-12T02:39:19;100689.16;;;3.45;85.43
57779;BME280;43608;49.486;9.640;2023-02-12T02:41:01;100666.59;;;3.33;85.26
57779;BME280;43608;49.486;9.640;2023-02-12T02:43:17;100692.22;;;3.53;85.63
57779;BME280;43608;49.486;9.640;2023-02-12T02:43:51;100682.38;;;3.49;85.47
57779;BME280;43608;49.486;9.640;2023-02-12T02:45:10;100684.19;;;3.50;85.07
57779;BME280;43608;49.486;9.640;2023-02-12T02:45:19;100698.56;;;3.57;85.05
57779;BME280;43608;49.486;9.640;2023-02-12T02:45:54;100667.97;;;3.41;85.05
57779;BME280;43608;49.486;9.640;2023-02-12T02:46:35;100694.13;;;3.56;84.98
57779;BME280;43608;49.486;9.640;2023-02-12T02:47:09;100695.66;;;3.52;84.99
57779;BME280;43608;49.486;9.640;2023-02-12T02:48:26;100710.75;;;3.56;84.71
57779;BME280;43608;49.486;9.640;2023-02-12T02:49:06;100670.38;;;3.38;85.20
57779;BME280;43608;49.486;9.640;2023-02-12T02:50:05;100707.06;;;3.53;84.77
57779;BME280;43608;49.486;9.640;2023-02-12T02:50:41;100699.22;;;3.53;84.93
57779;BME280;43608;49.486;9.640;2023-02-12T02:51:17;100682.69;;;3.39;84.81
57779;BME280;43608;49.486;9.640;2023-02-12T02:51:53;100705.25;;;3.52;85.22
57779;BME280;43608;49.486;9.640;2023-02-12T02:52:42;100673.94;;;3.38;85.26
57779;BME280;43608;49.486;9.640;2023-02-12T02:53:21;100697.31;;;3.50;84.97
57779;BME280;43608;49.486;9.640;2023-02-12T02:54:02;100689.09;;;3.44;85.00
57779;BME280;43608;49.486;9.640;2023-02-12T02:55:02;100700.75;;;3.49;85.32
57779;BME280;43608;49.486;9.640;2023-02-12T02:55:46;100666.34;;;3.28;85.31
57779;BME280;43608;49.486;9.640;2023-02-12T02:56:19;100705.91;;;3.47;85.08
57779;BME280;43608;49.486;9.640;2023-02-12T02:56:55;100679.06;;;3.37;85.36
57779;BME280;43608;49.486;9.640;2023-02-12T02:57:41;100699.75;;;3.47;85.19
57779;BME280;43608;49.486;9.640;2023-02-12T02:58:19;100685.22;;;3.37;85.47
57779;BME280;43608;49.486;9.640;2023-02-12T02:58:55;100682.84;;;3.42;85.24
57779;BME280;43608;49.486;9.640;2023-02-12T02:59:30;100697.97;;;3.46;85.16
57779;BME280;43608;49.486;9.640;2023-02-12T03:02:27;100694.19;;;3.41;85.66
57779;BME280;43608;49.486;9.640;2023-02-12T03:03:01;100700.47;;;3.44;85.77
57779;BME280;43608;49.486;9.640;2023-02-12T03:03:41;100691.78;;;3.45;85.51
57779;BME280;43608;49.486;9.640;2023-02-12T03:04:20;100688.81;;;3.39;85.54
57779;BME280;43608;49.486;9.640;2023-02-12T03:04:55;100697.97;;;3.46;85.43
57779;BME280;43608;49.486;9.640;2023-02-12T03:05:34;100673.50;;;3.30;85.79
57779;BME280;43608;49.486;9.640;2023-02-12T03:06:14;100641.69;;;3.09;85.75
57779;BME280;43608;49.486;9.640;2023-02-12T03:07:10;100700.47;;;3.44;85.60
57779;BME280;43608;49.486;9.640;2023-02-12T03:07:52;100666.34;;;3.28;85.72
57779;BME280;43608;49.486;9.640;2023-02-12T03:08:52;100697.69;;;3.41;85.82
57779;BME280;43608;49.486;9.640;2023-02-12T03:09:36;100688.72;;;3.38;85.47
57779;BME280;43608;49.486;9.640;2023-02-12T03:10:13;100680.78;;;3.36;85.66
57779;BME280;43608;49.486;9.640;2023-02-12T03:10:49;100680.78;;;3.36;85.96
57779;BME280;43608;49.486;9.640;2023-02-12T03:11:23;100696.88;;;3.42;85.79
57779;BME280;43608;49.486;9.640;2023-02-12T03:11:58;100694.34;;;3.44;85.81
57779;BME280;43608;49.486;9.640;2023-02-12T03:12:43;100682.41;;;3.34;85.79
57779;BME280;43608;49.486;9.640;2023-02-12T03:13:36;100691.56;;;3.41;85.80
57779;BME280;43608;49.486;9.640;2023-02-12T03:15:02;100690.56;;;3.39;85.88
57779;BME280;43608;49.486;9.640;2023-02-12T03:16:25;100687.03;;;3.38;85.59
57779;BME280;43608;49.486;9.640;2023-02-12T03:17:00;100689.38;;;3.34;85.80
57779;BME280;43608;49.486;9.640;2023-02-12T03:17:34;100702.03;;;3.41;85.71
57779;BME280;43608;49.486;9.640;2023-02-12T03:18:11;100711.78;;;3.43;85.75
57779;BME280;43608;49.486;9.640;2023-02-12T03:18:51;100649.69;;;3.11;85.61
57779;BME280;43608;49.486;9.640;2023-02-12T03:19:36;100708.25;;;3.43;85.54
57779;BME280;43608;49.486;9.640;2023-02-12T03:20:14;100702.94;;;3.41;85.81
57779;BME280;43608;49.486;9.640;2023-02-12T03:20:56;100700.16;;;3.38;85.57